sensor_id;sensor_type;location;lat;lon;timestamp;temperature;humidity
21801;DHT22;11062;51.164;16.924;2022-11-27T02:00:49;30.60;36.50
21801;DHT22;11062;51.164;16.924;2022-11-27T03:04:19;30.50;36.60
21801;DHT22;11062;51.164;16.924;2022-11-27T03:06:55;30.50;36.80
21801;DHT22;11062;51.164;16.924;2022-11-27T03:09:43;30.50;36.60
21801;DHT22;11062;51.164;16.924;2022-11-27T03:12:11;30.50;36.60
21801;DHT22;11062;51.164;16.924;2022-11-27T03:14:42;30.50;36.60
21801;DHT22;11062;51.164;16.924;2022-11-27T03:23:02;30.50;36.50
21801;DHT22;11062;51.164;16.924;2022-11-27T03:25:28;30.50;36.60
21801;DHT22;11062;51.164;16.924;2022-11-27T03:28:00;30.50;36.60
21801;DHT22;11062;51.164;16.924;2022-11-27T03:30:27;30.60;36.60
21801;DHT22;11062;51.164;16.924;2022-11-27T03:32:54;30.60;36.70
21801;DHT22;11062;51.164;16.924;2022-11-27T03:35:22;30.60;36.70
21801;DHT22;11062;51.164;16.924;2022-11-27T03:37:50;30.60;36.50
21801;DHT22;11062;51.164;16.924;2022-11-27T03:40:17;30.50;36.60
21801;DHT22;11062;51.164;16.924;2022-11-27T03:48:05;30.50;36.60
21801;DHT22;11062;51.164;16.924;2022-11-27T03:53:38;30.50;36.70
21801;DHT22;11062;51.164;16.924;2022-11-27T03:56:12;30.50;36.70
21801;DHT22;11062;51.164;16.924;2022-11-27T03:58:57;30.30;36.70
21801;DHT22;11062;51.164;16.924;2022-11-27T04:01:25;30.50;36.70
21801;DHT22;11062;51.164;16.924;2022-11-27T04:03:52;30.50;36.70
21801;DHT22;11062;51.164;16.924;2022-11-27T04:06:18;30.40;36.70
21801;DHT22;11062;51.164;16.924;2022-11-27T04:08:45;30.50;36.70
21801;DHT22;11062;51.164;16.924;2022-11-27T04:11:12;30.50;36.80
21801;DHT22;11062;51.164;16.924;2022-11-27T04:13:38;30.50;36.70
21801;DHT22;11062;51.164;16.924;2022-11-27T04:16:04;30.50;36.70
21801;DHT22;11062;51.164;16.924;2022-11-27T04:18:31;30.50;36.70
21801;DHT22;11062;51.164;16.924;2022-11-27T04:20:59;30.50;36.60
21801;DHT22;11062;51.164;16.924;2022-11-27T04:23:25;30.50;37.40
21801;DHT22;11062;51.164;16.924;2022-11-27T04:25:51;30.50;36.80
21801;DHT22;11062;51.164;16.924;2022-11-27T04:28:17;30.50;36.80
21801;DHT22;11062;51.164;16.924;2022-11-27T04:30:49;30.40;36.70
21801;DHT22;11062;51.164;16.924;2022-11-27T04:33:15;30.40;36.70
21801;DHT22;11062;51.164;16.924;2022-11-27T04:35:44;30.40;36.80
21801;DHT22;11062;51.164;16.924;2022-11-27T04:38:16;30.40;36.80
21801;DHT22;11062;51.164;16.924;2022-11-27T04:40:43;30.50;37.00
21801;DHT22;11062;51.164;16.924;2022-11-27T04:43:10;30.40;36.90
21801;DHT22;11062;51.164;16.924;2022-11-27T04:45:36;30.40;37.00
21801;DHT22;11062;51.164;16.924;2022-11-27T04:48:06;30.40;36.90
21801;DHT22;11062;51.164;16.924;2022-11-27T04:50:35;30.40;37.60
21801;DHT22;11062;51.164;16.924;2022-11-27T04:53:05;30.40;36.90
21801;DHT22;11062;51.164;16.924;2022-11-27T04:55:31;30.40;36.90
21801;DHT22;11062;51.164;16.924;2022-11-27T04:57:57;30.30;36.80
21801;DHT22;11062;51.164;16.924;2022-11-27T05:00:23;30.30;37.00
21801;DHT22;11062;51.164;16.924;2022-11-27T05:02:48;30.50;37.00
21801;DHT22;11062;51.164;16.924;2022-11-27T05:05:14;30.50;36.90
21801;DHT22;11062;51.164;16.924;2022-11-27T05:07:41;30.60;36.80
21801;DHT22;11062;51.164;16.924;2022-11-27T05:10:08;30.60;36.80
21801;DHT22;11062;51.164;16.924;2022-11-27T05:12:34;30.70;36.60
21801;DHT22;11062;51.164;16.924;2022-11-27T05:15:00;30.70;36.60
21801;DHT22;11062;51.164;16.924;2022-11-27T05:17:28;30.80;36.60
21801;DHT22;11062;51.164;16.924;2022-11-27T05:19:54;30.80;36.60
21801;DHT22;11062;51.164;16.924;2022-11-27T05:22:23;30.80;36.50
21801;DHT22;11062;51.164;16.924;2022-11-27T05:24:49;30.80;36.60
21801;DHT22;11062;51.164;16.924;2022-11-27T05:27:18;30.80;36.50
21801;DHT22;11062;51.164;16.924;2022-11-27T05:29:44;30.80;36.50
21801;DHT22;11062;51.164;16.924;2022-11-27T05:32:10;30.80;36.50
21801;DHT22;11062;51.164;16.924;2022-11-27T05:34:36;30.90;36.60
21801;DHT22;11062;51.164;16.924;2022-11-27T05:37:02;30.90;36.50
21801;DHT22;11062;51.164;16.924;2022-11-27T05:39:28;30.90;36.40
21801;DHT22;11062;51.164;16.924;2022-11-27T05:41:57;30.90;36.50
21801;DHT22;11062;51.164;16.924;2022-11-27T05:44:23;30.90;36.50
21801;DHT22;11062;51.164;16.924;2022-11-27T05:46:49;30.90;36.40
21801;DHT22;11062;51.164;16.924;2022-11-27T05:49:20;30.90;36.50
21801;DHT22;11062;51.164;16.924;2022-11-27T05:51:46;30.90;36.40
21801;DHT22;11062;51.164;16.924;2022-11-27T05:54:12;30.90;36.60
21801;DHT22;11062;51.164;16.924;2022-11-27T05:56:38;30.90;36.60
21801;DHT22;11062;51.164;16.924;2022-11-27T05:59:04;30.90;36.60
21801;DHT22;11062;51.164;16.924;2022-11-27T06:01:30;30.90;36.50
21801;DHT22;11062;51.164;16.924;2022-11-27T06:03:56;30.90;36.60
21801;DHT22;11062;51.164;16.924;2022-11-27T06:06:25;30.90;36.60
21801;DHT22;11062;51.164;16.924;2022-11-27T06:08:54;30.90;36.70
21801;DHT22;11062;51.164;16.924;2022-11-27T06:11:21;30.90;36.70
21801;DHT22;11062;51.164;16.924;2022-11-27T06:13:48;30.80;36.80
21801;DHT22;11062;51.164;16.924;2022-11-27T06:16:18;30.80;36.70
21801;DHT22;11062;51.164;16.924;2022-11-27T06:18:47;30.80;36.80
21801;DHT22;11062;51.164;16.924;2022-11-27T06:21:16;30.80;36.90
21801;DHT22;11062;51.164;16.924;2022-11-27T06:23:44;30.80;36.90
21801;DHT22;11062;51.164;16.924;2022-11-27T06:26:18;30.80;36.80
21801;DHT22;11062;51.164;16.924;2022-11-27T06:28:46;30.90;36.80
21801;DHT22;11062;51.164;16.924;2022-11-27T06:31:14;30.90;36.70
21801;DHT22;11062;51.164;16.924;2022-11-27T06:33:44;30.90;36.80
21801;DHT22;11062;51.164;16.924;2022-11-27T06:36:10;30.90;36.70
21801;DHT22;11062;51.164;16.924;2022-11-27T06:38:37;30.90;36.70
21801;DHT22;11062;51.164;16.924;2022-11-27T06:41:05;30.90;36.70
21801;DHT22;11062;51.164;16.924;2022-11-27T06:43:32;30.90;36.60
21801;DHT22;11062;51.164;16.924;2022-11-27T06:45:59;30.90;36.60
21801;DHT22;11062;51.164;16.924;2022-11-27T06:48:29;30.90;36.60
21801;DHT22;11062;51.164;16.924;2022-11-27T06:51:05;30.90;36.60
21801;DHT22;11062;51.164;16.924;2022-11-27T06:53:34;30.80;36.60
21801;DHT22;11062;51.164;16.924;2022-11-27T06:56:12;30.60;36.80
21801;DHT22;11062;51.164;16.924;2022-11-27T06:58:48;30.50;36.80
21801;DHT22;11062;51.164;16.924;2022-11-27T07:01:16;30.30;37.10
21801;DHT22;11062;51.164;16.924;2022-11-27T07:25:36;30.80;36.30
21801;DHT22;11062;51.164;16.924;2022-11-27T07:28:03;30.80;36.40
21801;DHT22;11062;51.164;16.924;2022-11-27T07:30:29;30.80;36.60
21801;DHT22;11062;51.164;16.924;2022-11-27T07:32:58;30.80;36.40
21801;DHT22;11062;51.164;16.924;2022-11-27T07:35:24;30.80;36.40
21801;DHT22;11062;51.164;16.924;2022-11-27T07:37:56;30.80;36.40
21801;DHT22;11062;51.164;16.924;2022-11-27T07:40:25;30.80;36.40
21801;DHT22;11062;51.164;16.924;2022-11-27T07:42:54;30.90;36.50
21801;DHT22;11062;51.164;16.924;2022-11-27T07:45:20;30.80;36.60
21801;DHT22;11062;51.164;16.924;2022-11-27T07:47:46;30.70;36.50
21801;DHT22;11062;51.164;16.924;2022-11-27T07:50:15;30.60;36.60
21801;DHT22;11062;51.164;16.924;2022-11-27T07:52:41;30.20;37.00
21801;DHT22;11062;51.164;16.924;2022-11-27T07:55:08;29.70;37.40
21801;DHT22;11062;51.164;16.924;2022-11-27T07:57:37;29.60;37.80
21801;DHT22;11062;51.164;16.924;2022-11-27T08:00:04;29.70;38.10
21801;DHT22;11062;51.164;16.924;2022-11-27T08:02:30;29.60;38.20
21801;DHT22;11062;51.164;16.924;2022-11-27T08:04:59;29.80;38.30
21801;DHT22;11062;51.164;16.924;2022-11-27T08:07:29;30.00;38.10
21801;DHT22;11062;51.164;16.924;2022-11-27T08:09:56;30.10;38.10
21801;DHT22;11062;51.164;16.924;2022-11-27T08:12:25;30.10;38.10
21801;DHT22;11062;51.164;16.924;2022-11-27T08:14:51;30.30;38.00
21801;DHT22;11062;51.164;16.924;2022-11-27T08:17:17;30.50;37.90
21801;DHT22;11062;51.164;16.924;2022-11-27T08:19:49;30.60;37.60
21801;DHT22;11062;51.164;16.924;2022-11-27T08:22:17;30.60;37.40
21801;DHT22;11062;51.164;16.924;2022-11-27T08:24:45;30.70;37.50
21801;DHT22;11062;51.164;16.924;2022-11-27T08:27:14;30.90;37.30
21801;DHT22;11062;51.164;16.924;2022-11-27T08:29:41;30.90;37.10
21801;DHT22;11062;51.164;16.924;2022-11-27T08:32:07;30.90;37.00
21801;DHT22;11062;51.164;16.924;2022-11-27T08:34:35;30.90;37.10
21801;DHT22;11062;51.164;16.924;2022-11-27T08:37:02;31.00;37.00
21801;DHT22;11062;51.164;16.924;2022-11-27T08:39:28;31.10;37.10
21801;DHT22;11062;51.164;16.924;2022-11-27T08:41:57;31.10;37.70
21801;DHT22;11062;51.164;16.924;2022-11-27T08:44:23;31.10;36.90
21801;DHT22;11062;51.164;16.924;2022-11-27T08:46:49;31.10;36.80
21801;DHT22;11062;51.164;16.924;2022-11-27T08:49:15;31.20;36.70
21801;DHT22;11062;51.164;16.924;2022-11-27T08:51:41;31.20;36.70
21801;DHT22;11062;51.164;16.924;2022-11-27T08:54:10;31.20;36.70
21801;DHT22;11062;51.164;16.924;2022-11-27T08:56:36;31.20;36.80
21801;DHT22;11062;51.164;16.924;2022-11-27T08:59:02;31.30;36.90
21801;DHT22;11062;51.164;16.924;2022-11-27T09:01:31;31.30;36.90
21801;DHT22;11062;51.164;16.924;2022-11-27T09:04:00;31.30;37.00
21801;DHT22;11062;51.164;16.924;2022-11-27T09:06:31;31.10;36.70
21801;DHT22;11062;51.164;16.924;2022-11-27T09:09:03;31.10;37.10
21801;DHT22;11062;51.164;16.924;2022-11-27T09:11:30;31.00;37.10
21801;DHT22;11062;51.164;16.924;2022-11-27T09:13:58;31.00;37.20
21801;DHT22;11062;51.164;16.924;2022-11-27T09:16:24;31.10;37.40
21801;DHT22;11062;51.164;16.924;2022-11-27T09:18:51;31.20;37.40
21801;DHT22;11062;51.164;16.924;2022-11-27T09:21:20;31.20;37.40
21801;DHT22;11062;51.164;16.924;2022-11-27T09:23:46;31.10;37.20
21801;DHT22;11062;51.164;16.924;2022-11-27T09:26:15;31.20;37.30
21801;DHT22;11062;51.164;16.924;2022-11-27T09:28:42;31.20;37.10
21801;DHT22;11062;51.164;16.924;2022-11-27T09:31:12;30.80;36.80
21801;DHT22;11062;51.164;16.924;2022-11-27T09:33:39;29.70;37.00
21801;DHT22;11062;51.164;16.924;2022-11-27T09:36:23;29.60;38.30
21801;DHT22;11062;51.164;16.924;2022-11-27T09:38:49;29.40;38.40
21801;DHT22;11062;51.164;16.924;2022-11-27T09:41:38;29.60;38.90
21801;DHT22;11062;51.164;16.924;2022-11-27T09:44:42;30.00;38.70
21801;DHT22;11062;51.164;16.924;2022-11-27T09:50:18;30.50;38.40
21801;DHT22;11062;51.164;16.924;2022-11-27T09:52:54;30.70;37.70
21801;DHT22;11062;51.164;16.924;2022-11-27T09:55:35;30.90;37.70
21801;DHT22;11062;51.164;16.924;2022-11-27T10:01:22;31.00;37.20
21801;DHT22;11062;51.164;16.924;2022-11-27T10:03:51;31.20;36.70
21801;DHT22;11062;51.164;16.924;2022-11-27T10:11:53;30.60;37.30
21801;DHT22;11062;51.164;16.924;2022-11-27T10:17:14;30.80;37.50
21801;DHT22;11062;51.164;16.924;2022-11-27T10:22:26;29.00;37.20
21801;DHT22;11062;51.164;16.924;2022-11-27T10:25:10;28.50;38.70
21801;DHT22;11062;51.164;16.924;2022-11-27T10:30:44;28.50;39.00
21801;DHT22;11062;51.164;16.924;2022-11-27T10:33:23;28.80;39.30
21801;DHT22;11062;51.164;16.924;2022-11-27T10:35:50;29.60;38.90
21801;DHT22;11062;51.164;16.924;2022-11-27T10:38:23;29.90;38.30
21801;DHT22;11062;51.164;16.924;2022-11-27T10:41:16;30.50;37.80
21801;DHT22;11062;51.164;16.924;2022-11-27T10:43:55;30.60;37.20
21801;DHT22;11062;51.164;16.924;2022-11-27T10:46:30;30.60;37.10
21801;DHT22;11062;51.164;16.924;2022-11-27T10:48:57;30.30;37.30
21801;DHT22;11062;51.164;16.924;2022-11-27T10:51:30;30.30;37.60
21801;DHT22;11062;51.164;16.924;2022-11-27T10:53:59;30.40;38.00
21801;DHT22;11062;51.164;16.924;2022-11-27T10:59:43;30.60;37.40
21801;DHT22;11062;51.164;16.924;2022-11-27T11:02:32;30.40;37.00
21801;DHT22;11062;51.164;16.924;2022-11-27T11:05:19;30.40;37.20
21801;DHT22;11062;51.164;16.924;2022-11-27T11:08:16;30.50;37.10
21801;DHT22;11062;51.164;16.924;2022-11-27T11:13:40;30.50;36.80
21801;DHT22;11062;51.164;16.924;2022-11-27T11:16:17;30.60;36.70
21801;DHT22;11062;51.164;16.924;2022-11-27T11:18:46;30.80;36.50
21801;DHT22;11062;51.164;16.924;2022-11-27T11:24:14;30.50;36.80
21801;DHT22;11062;51.164;16.924;2022-11-27T11:26:50;30.70;36.70
21801;DHT22;11062;51.164;16.924;2022-11-27T11:32:11;31.00;36.80
21801;DHT22;11062;51.164;16.924;2022-11-27T11:34:43;30.80;36.80
21801;DHT22;11062;51.164;16.924;2022-11-27T11:37:35;31.00;36.50
21801;DHT22;11062;51.164;16.924;2022-11-27T11:40:18;31.00;36.40
21801;DHT22;11062;51.164;16.924;2022-11-27T11:43:03;30.90;36.20
21801;DHT22;11062;51.164;16.924;2022-11-27T11:45:32;31.20;36.50
21801;DHT22;11062;51.164;16.924;2022-11-27T11:48:18;31.20;36.40
21801;DHT22;11062;51.164;16.924;2022-11-27T11:53:42;31.40;35.90
21801;DHT22;11062;51.164;16.924;2022-11-27T11:59:41;31.70;36.20
21801;DHT22;11062;51.164;16.924;2022-11-27T12:05:02;31.80;35.70
21801;DHT22;11062;51.164;16.924;2022-11-27T12:08:00;31.90;35.60
21801;DHT22;11062;51.164;16.924;2022-11-27T12:16:42;32.10;35.50
21801;DHT22;11062;51.164;16.924;2022-11-27T12:22:16;32.10;35.50
21801;DHT22;11062;51.164;16.924;2022-11-27T12:30:49;32.20;35.60
21801;DHT22;11062;51.164;16.924;2022-11-27T12:42:06;31.70;35.70
21801;DHT22;11062;51.164;16.924;2022-11-27T12:44:59;31.60;36.10
21801;DHT22;11062;51.164;16.924;2022-11-27T12:50:21;31.50;35.90
21801;DHT22;11062;51.164;16.924;2022-11-27T12:55:38;31.60;35.80
21801;DHT22;11062;51.164;16.924;2022-11-27T12:58:15;31.60;35.70
21801;DHT22;11062;51.164;16.924;2022-11-27T13:00:43;31.50;35.70
21801;DHT22;11062;51.164;16.924;2022-11-27T13:03:27;31.50;35.70
21801;DHT22;11062;51.164;16.924;2022-11-27T13:06:10;31.60;35.90
21801;DHT22;11062;51.164;16.924;2022-11-27T13:08:55;31.70;35.90
21801;DHT22;11062;51.164;16.924;2022-11-27T13:11:31;31.70;35.80
21801;DHT22;11062;51.164;16.924;2022-11-27T13:14:24;31.70;35.80
21801;DHT22;11062;51.164;16.924;2022-11-27T13:17:07;31.70;35.70
21801;DHT22;11062;51.164;16.924;2022-11-27T13:19:47;31.60;35.90
21801;DHT22;11062;51.164;16.924;2022-11-27T13:22:21;31.60;36.00
21801;DHT22;11062;51.164;16.924;2022-11-27T13:24:53;31.60;36.10
21801;DHT22;11062;51.164;16.924;2022-11-27T13:27:23;31.60;36.10
21801;DHT22;11062;51.164;16.924;2022-11-27T13:30:04;31.60;36.00
21801;DHT22;11062;51.164;16.924;2022-11-27T13:32:40;31.60;36.10
21801;DHT22;11062;51.164;16.924;2022-11-27T13:35:39;31.60;36.20
21801;DHT22;11062;51.164;16.924;2022-11-27T13:40:47;31.70;35.90
21801;DHT22;11062;51.164;16.924;2022-11-27T13:43:43;31.80;36.00
21801;DHT22;11062;51.164;16.924;2022-11-27T13:46:23;31.80;36.00
21801;DHT22;11062;51.164;16.924;2022-11-27T13:49:01;31.70;35.80
21801;DHT22;11062;51.164;16.924;2022-11-27T13:51:36;31.70;35.80
21801;DHT22;11062;51.164;16.924;2022-11-27T13:54:17;31.80;35.80
21801;DHT22;11062;51.164;16.924;2022-11-27T13:56:47;31.80;36.30
21801;DHT22;11062;51.164;16.924;2022-11-27T13:59:18;31.70;35.70
21801;DHT22;11062;51.164;16.924;2022-11-27T14:04:19;31.70;35.60
21801;DHT22;11062;51.164;16.924;2022-11-27T14:06:56;31.70;35.80
21801;DHT22;11062;51.164;16.924;2022-11-27T14:09:43;31.70;35.80
21801;DHT22;11062;51.164;16.924;2022-11-27T14:15:00;31.60;35.80
21801;DHT22;11062;51.164;16.924;2022-11-27T14:17:40;31.70;35.90
21801;DHT22;11062;51.164;16.924;2022-11-27T14:22:50;31.60;36.00
21801;DHT22;11062;51.164;16.924;2022-11-27T14:30:33;31.70;35.70
21801;DHT22;11062;51.164;16.924;2022-11-27T14:33:04;31.70;35.70
21801;DHT22;11062;51.164;16.924;2022-11-27T14:35:30;31.60;35.80
21801;DHT22;11062;51.164;16.924;2022-11-27T14:38:10;31.50;35.90
21801;DHT22;11062;51.164;16.924;2022-11-27T14:40:38;31.50;35.80
21801;DHT22;11062;51.164;16.924;2022-11-27T14:43:24;31.50;35.90
21801;DHT22;11062;51.164;16.924;2022-11-27T14:45:56;31.60;35.90
21801;DHT22;11062;51.164;16.924;2022-11-27T14:48:39;31.50;35.90
21801;DHT22;11062;51.164;16.924;2022-11-27T14:51:18;31.50;35.90
21801;DHT22;11062;51.164;16.924;2022-11-27T14:53:46;31.50;35.90
21801;DHT22;11062;51.164;16.924;2022-11-27T14:56:14;31.40;35.90
21801;DHT22;11062;51.164;16.924;2022-11-27T14:58:52;31.50;36.00
21801;DHT22;11062;51.164;16.924;2022-11-27T15:01:32;31.50;35.90
21801;DHT22;11062;51.164;16.924;2022-11-27T15:04:00;31.50;35.90
21801;DHT22;11062;51.164;16.924;2022-11-27T15:06:43;31.50;35.90
21801;DHT22;11062;51.164;16.924;2022-11-27T15:09:21;31.50;35.90
21801;DHT22;11062;51.164;16.924;2022-11-27T15:12:06;31.40;35.80
21801;DHT22;11062;51.164;16.924;2022-11-27T15:14:55;31.40;36.10
21801;DHT22;11062;51.164;16.924;2022-11-27T15:17:27;31.40;35.90
21801;DHT22;11062;51.164;16.924;2022-11-27T15:19:54;31.20;35.90
21801;DHT22;11062;51.164;16.924;2022-11-27T15:22:22;31.10;35.90
21801;DHT22;11062;51.164;16.924;2022-11-27T15:25:00;31.10;36.10
21801;DHT22;11062;51.164;16.924;2022-11-27T15:27:44;31.00;35.90
21801;DHT22;11062;51.164;16.924;2022-11-27T15:30:16;31.10;36.00
21801;DHT22;11062;51.164;16.924;2022-11-27T15:32:52;31.00;35.90
21801;DHT22;11062;51.164;16.924;2022-11-27T15:35:30;31.00;36.50
21801;DHT22;11062;51.164;16.924;2022-11-27T15:38:09;31.00;36.70
21801;DHT22;11062;51.164;16.924;2022-11-27T15:40:38;31.10;36.10
21801;DHT22;11062;51.164;16.924;2022-11-27T15:43:14;31.10;35.90
21801;DHT22;11062;51.164;16.924;2022-11-27T15:45:42;31.10;35.90
21801;DHT22;11062;51.164;16.924;2022-11-27T15:48:19;31.20;35.90
21801;DHT22;11062;51.164;16.924;2022-11-27T15:50:45;31.20;35.90
21801;DHT22;11062;51.164;16.924;2022-11-27T15:53:12;31.20;35.80
21801;DHT22;11062;51.164;16.924;2022-11-27T15:55:41;31.20;35.70
21801;DHT22;11062;51.164;16.924;2022-11-27T15:58:10;31.20;35.60
21801;DHT22;11062;51.164;16.924;2022-11-27T16:00:38;31.20;35.70
21801;DHT22;11062;51.164;16.924;2022-11-27T16:03:05;31.20;35.70
21801;DHT22;11062;51.164;16.924;2022-11-27T16:05:41;31.20;35.70
21801;DHT22;11062;51.164;16.924;2022-11-27T16:08:07;31.30;35.70
21801;DHT22;11062;51.164;16.924;2022-11-27T16:10:45;31.40;35.50
21801;DHT22;11062;51.164;16.924;2022-11-27T16:13:11;31.50;35.30
21801;DHT22;11062;51.164;16.924;2022-11-27T16:15:37;31.50;35.20
21801;DHT22;11062;51.164;16.924;2022-11-27T16:18:03;31.40;35.30
21801;DHT22;11062;51.164;16.924;2022-11-27T16:20:31;31.20;35.40
21801;DHT22;11062;51.164;16.924;2022-11-27T16:23:00;31.10;35.50
21801;DHT22;11062;51.164;16.924;2022-11-27T16:25:30;31.10;35.60
21801;DHT22;11062;51.164;16.924;2022-11-27T16:28:03;31.00;35.60
21801;DHT22;11062;51.164;16.924;2022-11-27T16:30:30;31.00;35.60
21801;DHT22;11062;51.164;16.924;2022-11-27T16:32:56;30.90;35.80
21801;DHT22;11062;51.164;16.924;2022-11-27T16:35:24;30.90;35.80
21801;DHT22;11062;51.164;16.924;2022-11-27T16:37:58;30.90;35.80
21801;DHT22;11062;51.164;16.924;2022-11-27T16:40:24;30.90;36.00
21801;DHT22;11062;51.164;16.924;2022-11-27T16:42:57;30.80;35.90
21801;DHT22;11062;51.164;16.924;2022-11-27T16:45:29;30.80;35.80
21801;DHT22;11062;51.164;16.924;2022-11-27T16:47:58;30.70;35.80
21801;DHT22;11062;51.164;16.924;2022-11-27T16:50:28;30.80;35.90
21801;DHT22;11062;51.164;16.924;2022-11-27T16:52:56;30.80;35.80
21801;DHT22;11062;51.164;16.924;2022-11-27T16:55:24;30.80;35.70
21801;DHT22;11062;51.164;16.924;2022-11-27T16:57:51;30.80;35.80
21801;DHT22;11062;51.164;16.924;2022-11-27T17:00:22;30.70;35.80
21801;DHT22;11062;51.164;16.924;2022-11-27T17:02:49;30.70;35.60
21801;DHT22;11062;51.164;16.924;2022-11-27T17:05:16;30.80;35.50
21801;DHT22;11062;51.164;16.924;2022-11-27T17:07:43;30.80;35.50
21801;DHT22;11062;51.164;16.924;2022-11-27T17:10:10;30.80;35.50
21801;DHT22;11062;51.164;16.924;2022-11-27T17:12:36;30.90;35.60
21801;DHT22;11062;51.164;16.924;2022-11-27T17:15:04;30.90;36.10
21801;DHT22;11062;51.164;16.924;2022-11-27T17:17:31;30.90;35.40
21801;DHT22;11062;51.164;16.924;2022-11-27T17:20:01;30.80;35.40
21801;DHT22;11062;51.164;16.924;2022-11-27T17:22:29;30.70;35.60
21801;DHT22;11062;51.164;16.924;2022-11-27T17:25:09;30.70;35.50
21801;DHT22;11062;51.164;16.924;2022-11-27T17:34:13;30.60;35.60
21801;DHT22;11062;51.164;16.924;2022-11-27T17:36:41;30.60;35.60
21801;DHT22;11062;51.164;16.924;2022-11-27T17:39:13;30.70;35.60
21801;DHT22;11062;51.164;16.924;2022-11-27T17:41:43;30.70;35.40
21801;DHT22;11062;51.164;16.924;2022-11-27T17:44:10;30.60;35.50
21801;DHT22;11062;51.164;16.924;2022-11-27T17:46:42;30.60;35.50
21801;DHT22;11062;51.164;16.924;2022-11-27T17:49:18;30.60;35.50
21801;DHT22;11062;51.164;16.924;2022-11-27T17:51:46;30.50;35.70
21801;DHT22;11062;51.164;16.924;2022-11-27T17:54:15;30.60;35.50
21801;DHT22;11062;51.164;16.924;2022-11-27T17:56:41;30.70;35.50
21801;DHT22;11062;51.164;16.924;2022-11-27T17:59:46;30.70;35.40
21801;DHT22;11062;51.164;16.924;2022-11-27T18:02:13;30.80;35.20
21801;DHT22;11062;51.164;16.924;2022-11-27T18:04:40;30.80;35.20
21801;DHT22;11062;51.164;16.924;2022-11-27T18:07:12;30.90;35.10
21801;DHT22;11062;51.164;16.924;2022-11-27T18:09:41;30.90;35.10
21801;DHT22;11062;51.164;16.924;2022-11-27T18:12:07;31.00;35.10
21801;DHT22;11062;51.164;16.924;2022-11-27T18:14:35;30.90;35.00
21801;DHT22;11062;51.164;16.924;2022-11-27T18:17:01;31.00;35.10
21801;DHT22;11062;51.164;16.924;2022-11-27T18:19:31;30.90;35.00
21801;DHT22;11062;51.164;16.924;2022-11-27T18:22:00;30.90;35.00
21801;DHT22;11062;51.164;16.924;2022-11-27T18:24:29;31.00;34.90
21801;DHT22;11062;51.164;16.924;2022-11-27T18:26:55;31.00;34.80
21801;DHT22;11062;51.164;16.924;2022-11-27T18:29:21;31.10;34.90
21801;DHT22;11062;51.164;16.924;2022-11-27T18:31:47;31.10;35.00
21801;DHT22;11062;51.164;16.924;2022-11-27T18:34:15;31.10;34.80
21801;DHT22;11062;51.164;16.924;2022-11-27T18:36:41;31.10;34.60
21801;DHT22;11062;51.164;16.924;2022-11-27T18:39:10;31.10;34.60
21801;DHT22;11062;51.164;16.924;2022-11-27T18:41:40;31.10;34.60
21801;DHT22;11062;51.164;16.924;2022-11-27T18:44:06;31.10;34.60
21801;DHT22;11062;51.164;16.924;2022-11-27T18:46:32;31.10;34.60
21801;DHT22;11062;51.164;16.924;2022-11-27T18:48:59;31.10;34.60
21801;DHT22;11062;51.164;16.924;2022-11-27T18:51:25;31.10;34.80
21801;DHT22;11062;51.164;16.924;2022-11-27T18:53:51;31.00;34.50
21801;DHT22;11062;51.164;16.924;2022-11-27T18:56:29;31.00;34.50
21801;DHT22;11062;51.164;16.924;2022-11-27T18:58:55;31.00;34.50
21801;DHT22;11062;51.164;16.924;2022-11-27T19:01:27;31.00;34.60
21801;DHT22;11062;51.164;16.924;2022-11-27T19:03:53;31.00;34.50
21801;DHT22;11062;51.164;16.924;2022-11-27T19:06:21;31.00;34.60
21801;DHT22;11062;51.164;16.924;2022-11-27T19:08:48;31.00;34.50
21801;DHT22;11062;51.164;16.924;2022-11-27T19:11:17;30.90;34.40
21801;DHT22;11062;51.164;16.924;2022-11-27T19:13:44;31.00;34.40
21801;DHT22;11062;51.164;16.924;2022-11-27T19:16:16;31.00;34.40
21801;DHT22;11062;51.164;16.924;2022-11-27T19:18:46;30.90;34.30
21801;DHT22;11062;51.164;16.924;2022-11-27T19:21:20;30.90;34.30
21801;DHT22;11062;51.164;16.924;2022-11-27T19:23:51;30.90;34.30
21801;DHT22;11062;51.164;16.924;2022-11-27T19:26:29;30.80;34.30
21801;DHT22;11062;51.164;16.924;2022-11-27T19:29:00;30.70;34.40
21801;DHT22;11062;51.164;16.924;2022-11-27T19:31:28;30.50;34.50
21801;DHT22;11062;51.164;16.924;2022-11-27T19:34:03;30.40;34.50
21801;DHT22;11062;51.164;16.924;2022-11-27T19:36:30;30.30;34.50
21801;DHT22;11062;51.164;16.924;2022-11-27T19:39:10;30.20;34.60
21801;DHT22;11062;51.164;16.924;2022-11-27T19:41:40;30.10;34.70
21801;DHT22;11062;51.164;16.924;2022-11-27T19:44:06;30.00;34.70
21801;DHT22;11062;51.164;16.924;2022-11-27T19:46:34;29.90;34.90
21801;DHT22;11062;51.164;16.924;2022-11-27T19:49:05;29.90;34.90
21801;DHT22;11062;51.164;16.924;2022-11-27T19:51:34;29.80;34.80
21801;DHT22;11062;51.164;16.924;2022-11-27T19:54:01;29.80;35.10
21801;DHT22;11062;51.164;16.924;2022-11-27T19:56:30;29.90;34.90
21801;DHT22;11062;51.164;16.924;2022-11-27T19:58:58;29.80;34.80
21801;DHT22;11062;51.164;16.924;2022-11-27T20:01:25;29.80;34.70
21801;DHT22;11062;51.164;16.924;2022-11-27T20:03:51;29.90;34.90
21801;DHT22;11062;51.164;16.924;2022-11-27T20:06:22;30.00;34.70
21801;DHT22;11062;51.164;16.924;2022-11-27T20:08:50;29.90;34.70
21801;DHT22;11062;51.164;16.924;2022-11-27T20:11:19;29.90;34.90
21801;DHT22;11062;51.164;16.924;2022-11-27T20:13:49;29.90;34.90
21801;DHT22;11062;51.164;16.924;2022-11-27T20:16:17;30.00;34.70
21801;DHT22;11062;51.164;16.924;2022-11-27T20:18:44;30.00;34.80
21801;DHT22;11062;51.164;16.924;2022-11-27T20:21:21;30.00;34.80
21801;DHT22;11062;51.164;16.924;2022-11-27T20:23:51;30.10;34.60
21801;DHT22;11062;51.164;16.924;2022-11-27T20:26:20;29.90;34.70
21801;DHT22;11062;51.164;16.924;2022-11-27T20:28:51;29.90;34.80
21801;DHT22;11062;51.164;16.924;2022-11-27T20:31:23;29.90;35.00
21801;DHT22;11062;51.164;16.924;2022-11-27T20:33:50;29.90;34.90
21801;DHT22;11062;51.164;16.924;2022-11-27T20:36:18;29.80;34.90
21801;DHT22;11062;51.164;16.924;2022-11-27T20:38:44;29.70;35.00
21801;DHT22;11062;51.164;16.924;2022-11-27T20:41:13;29.80;35.20
21801;DHT22;11062;51.164;16.924;2022-11-27T20:43:40;29.70;35.10
21801;DHT22;11062;51.164;16.924;2022-11-27T20:46:08;29.70;35.20
21801;DHT22;11062;51.164;16.924;2022-11-27T20:48:35;29.70;35.10